Almas, Brazil
Current Conditions -  °F | °C
As of 4:00 PM on Thursday 27 Nov 2014 (Local Time) from SBPJ Reporting Station
Few Clouds Few Clouds  
Wind Chill: 86°   Ceiling: Unl
Heat Index: 93°   Visibility: 6mi
Dew Point: 73°   Wind: 10mph
Humidity: 66%   Direction: 200°SSW
Pressure: 29.77"   Gusts: NA
Location:  11.55°S, 47.15°W
Report Text: SBPJ 271900Z 20009KT 9999 FEW020 FEW040TCU 30/23 Q1008
Loading
Personal Weather Stations






























Interactive Weather Map New forecast layout! Learn more

10-Day Weather Forecast

Advertisements
Track Severe Weather on mobile